Time;durP1;ratioP1;P1;durP2;ratioP2;P2;SDS_P1;SDS_P2;PMS_P1;PMS_P2;Temp;Humidity;BMP_temperature;BMP_pressure;BME280_temperature;BME280_humidity;BME280_pressure;Samples;Min_cycle;Max_cycle;Signal;HPM_P1;HPM_P2
2024/03/04 00:00:45;;;;;;;22.70;11.52;;;0.40;83.10;;;;;;4937965;29;20485;-76
2024/03/04 00:03:10;;;;;;;18.35;11.27;;;0.40;83.20;;;;;;4936713;29;20024;-78
2024/03/04 00:05:36;;;;;;;23.70;11.18;;;0.40;83.10;;;;;;4936223;29;20517;-78
2024/03/04 00:08:03;;;;;;;18.27;12.50;;;0.40;82.90;;;;;;4954355;28;20052;-78
2024/03/04 00:10:29;;;;;;;20.43;12.63;;;0.40;83.10;;;;;;4954277;28;20134;-77
2024/03/04 00:12:56;;;;;;;24.75;13.02;;;0.40;83.20;;;;;;4955207;29;20262;-78
2024/03/04 00:15:23;;;;;;;21.63;11.95;;;0.30;83.20;;;;;;4955292;28;20035;-78
2024/03/04 00:17:50;;;;;;;22.27;13.30;;;0.40;83.10;;;;;;4954065;28;20029;-78
2024/03/04 00:20:18;;;;;;;20.83;10.75;;;0.30;82.90;;;;;;4955057;29;20496;-78
2024/03/04 00:22:47;;;;;;;22.83;11.27;;;0.30;83.00;;;;;;4951152;29;20512;-79
2024/03/04 00:25:16;;;;;;;21.40;11.25;;;0.40;83.00;;;;;;4946270;29;20027;-79
2024/03/04 00:27:47;;;;;;;20.85;11.10;;;0.30;83.00;;;;;;4957694;28;20046;-78
2024/03/04 00:30:14;;;;;;;22.75;12.05;;;0.30;82.90;;;;;;4957500;28;20613;-78
2024/03/04 00:32:40;;;;;;;19.02;11.93;;;0.30;82.80;;;;;;4955138;28;20054;-78
2024/03/04 00:35:09;;;;;;;18.98;11.63;;;0.30;82.70;;;;;;4954769;28;20023;-78
2024/03/04 00:37:36;;;;;;;18.63;11.23;;;0.30;82.40;;;;;;4955804;28;20034;-78
2024/03/04 00:40:06;;;;;;;19.90;12.20;;;0.30;82.30;;;;;;4953950;28;20440;-77
2024/03/04 00:42:33;;;;;;;25.38;12.02;;;0.30;82.30;;;;;;4950017;29;20035;-79
2024/03/04 00:44:59;;;;;;;26.88;12.75;;;0.30;82.50;;;;;;4953352;29;20071;-77
2024/03/04 00:47:25;;;;;;;20.30;11.15;;;0.30;82.30;;;;;;4954326;28;20027;-78
2024/03/04 00:49:52;;;;;;;17.55;10.25;;;0.30;82.40;;;;;;4952695;28;20413;-78
2024/03/04 00:52:18;;;;;;;22.75;12.10;;;0.30;82.30;;;;;;4953586;29;20030;-77
2024/03/04 00:54:44;;;;;;;21.33;12.32;;;0.30;82.30;;;;;;4954291;28;20031;-78
2024/03/04 00:57:13;;;;;;;16.58;11.73;;;0.30;82.30;;;;;;4954627;28;20028;-77
2024/03/04 00:59:39;;;;;;;23.15;12.38;;;0.30;82.40;;;;;;4953234;28;20047;-76
2024/03/04 01:02:08;;;;;;;19.77;12.05;;;0.30;82.30;;;;;;4954152;28;20385;-76
2024/03/04 01:04:34;;;;;;;21.92;12.75;;;0.30;82.40;;;;;;4950773;28;20033;-76
2024/03/04 01:07:00;;;;;;;20.60;11.10;;;0.20;82.40;;;;;;4938909;28;20537;-81
2024/03/04 01:09:26;;;;;;;22.73;12.23;;;0.30;82.40;;;;;;4935539;29;20055;-76
2024/03/04 01:11:53;;;;;;;28.85;12.52;;;0.20;82.30;;;;;;4943689;29;20500;-77
2024/03/04 01:14:19;;;;;;;22.77;13.07;;;0.30;82.40;;;;;;4947123;29;20027;-78
2024/03/04 01:16:49;;;;;;;23.97;11.70;;;0.20;82.50;;;;;;4953844;28;20027;-77
2024/03/04 01:19:15;;;;;;;30.58;14.60;;;0.20;82.50;;;;;;4943460;28;20059;-76
2024/03/04 01:21:41;;;;;;;26.58;13.48;;;0.20;82.50;;;;;;4934748;29;20034;-80
2024/03/04 01:24:07;;;;;;;26.95;14.50;;;0.20;82.50;;;;;;4940128;28;20118;-78
2024/03/04 01:26:34;;;;;;;20.13;11.25;;;0.20;82.40;;;;;;4936206;29;20579;-77
2024/03/04 01:29:00;;;;;;;20.42;12.98;;;0.20;82.40;;;;;;4953845;28;20023;-79
2024/03/04 01:31:25;;;;;;;29.55;13.82;;;0.20;82.60;;;;;;4950210;29;20028;-77
2024/03/04 01:33:51;;;;;;;20.60;11.15;;;0.10;82.70;;;;;;4953224;29;20023;-79
2024/03/04 01:36:20;;;;;;;20.55;12.77;;;0.10;82.70;;;;;;4943679;28;20120;-79
2024/03/04 01:38:46;;;;;;;22.73;13.38;;;0.10;83.00;;;;;;4952310;29;20046;-78
2024/03/04 01:41:13;;;;;;;23.45;13.05;;;0.00;83.10;;;;;;4953775;28;20059;-77
2024/03/04 01:43:38;;;;;;;20.85;13.13;;;0.00;83.20;;;;;;4953756;29;20461;-76
2024/03/04 01:46:04;;;;;;;28.23;12.40;;;0.00;83.30;;;;;;4953616;29;20115;-77
2024/03/04 01:48:32;;;;;;;25.70;12.68;;;0.00;83.40;;;;;;4953634;28;20023;-79
2024/03/04 01:50:58;;;;;;;17.23;11.55;;;0.00;83.50;;;;;;4949408;29;20498;-77
2024/03/04 01:53:26;;;;;;;21.65;12.98;;;0.00;83.50;;;;;;4944422;29;20039;-77
2024/03/04 01:56:04;;;;;;;23.65;12.88;;;-0.10;83.50;;;;;;4951423;28;20024;-76
2024/03/04 01:58:32;;;;;;;21.27;12.50;;;-0.10;83.50;;;;;;4953435;28;20453;-78
2024/03/04 02:01:01;;;;;;;24.70;13.60;;;0.00;83.40;;;;;;4948800;29;20059;-76
2024/03/04 02:03:29;;;;;;;24.50;13.20;;;-0.10;83.50;;;;;;4962164;28;20111;-75
2024/03/04 02:05:56;;;;;;;24.63;13.73;;;-0.10;83.60;;;;;;4957664;28;20126;-77
2024/03/04 02:08:22;;;;;;;18.02;12.13;;;-0.10;83.60;;;;;;4956234;28;20047;-78
2024/03/04 02:10:48;;;;;;;20.45;13.73;;;-0.10;83.60;;;;;;4951733;28;20027;-77
2024/03/04 02:13:15;;;;;;;21.83;13.18;;;-0.10;83.70;;;;;;4948731;28;20102;-79
2024/03/04 02:15:41;;;;;;;24.33;12.60;;;-0.10;83.80;;;;;;4957458;29;20508;-76
2024/03/04 02:18:09;;;;;;;21.80;13.02;;;-0.20;83.90;;;;;;4957361;29;20030;-76
2024/03/04 02:20:42;;;;;;;22.08;12.85;;;-0.20;84.10;;;;;;4957672;28;20019;-75
2024/03/04 02:23:09;;;;;;;24.83;13.35;;;-0.20;84.10;;;;;;4957074;28;20106;-77
2024/03/04 02:25:52;;;;;;;20.70;12.48;;;-0.30;84.10;;;;;;4952571;29;20485;-77
2024/03/04 02:28:18;;;;;;;21.70;11.68;;;-0.30;84.40;;;;;;4954943;29;20030;-76
2024/03/04 02:30:45;;;;;;;19.60;11.63;;;-0.30;84.30;;;;;;4955786;28;20070;-79
2024/03/04 02:33:11;;;;;;;23.00;13.00;;;-0.40;84.50;;;;;;4953031;29;20023;-76
2024/03/04 02:35:37;;;;;;;21.17;12.20;;;-0.40;84.70;;;;;;4957129;28;20103;-76
2024/03/04 02:38:04;;;;;;;21.77;11.95;;;-0.40;84.80;;;;;;4955471;28;20054;-76
2024/03/04 02:40:30;;;;;;;26.08;16.83;;;-0.40;84.80;;;;;;4956827;28;20074;-77
2024/03/04 02:42:56;;;;;;;28.83;13.00;;;-0.40;84.80;;;;;;4956966;29;20038;-76
2024/03/04 02:45:25;;;;;;;20.52;12.40;;;-0.40;84.90;;;;;;4956429;28;20098;-76
2024/03/04 02:47:51;;;;;;;26.10;12.20;;;-0.40;84.90;;;;;;4947356;28;20119;-76
2024/03/04 02:50:17;;;;;;;18.33;11.82;;;-0.40;84.90;;;;;;4952604;29;20027;-76
2024/03/04 02:52:44;;;;;;;28.13;12.35;;;-0.50;85.00;;;;;;4957077;28;20583;-77
2024/03/04 02:55:10;;;;;;;21.00;12.18;;;-0.50;85.30;;;;;;4956578;28;20019;-79
2024/03/04 02:57:37;;;;;;;24.08;11.70;;;-0.50;85.30;;;;;;4956480;29;20086;-77
2024/03/04 03:00:05;;;;;;;22.10;11.65;;;-0.60;85.50;;;;;;4956812;29;20058;-76
2024/03/04 03:02:31;;;;;;;16.50;10.23;;;-0.60;85.60;;;;;;4959155;28;20052;-78
2024/03/04 03:04:57;;;;;;;23.73;11.13;;;-0.60;85.70;;;;;;4954128;29;20024;-76
2024/03/04 03:07:22;;;;;;;18.40;10.73;;;-0.60;85.70;;;;;;4956158;28;20051;-77
2024/03/04 03:09:48;;;;;;;21.67;11.10;;;-0.70;85.50;;;;;;4950746;29;20026;-75
2024/03/04 03:12:14;;;;;;;20.92;11.70;;;-0.60;85.50;;;;;;4955051;29;20042;-77
2024/03/04 03:14:40;;;;;;;22.65;11.98;;;-0.70;85.40;;;;;;4956003;28;20051;-77
2024/03/04 03:17:06;;;;;;;20.27;12.18;;;-0.70;85.60;;;;;;4956058;28;20024;-77
2024/03/04 03:19:33;;;;;;;26.58;11.73;;;-0.70;85.70;;;;;;4954790;28;20483;-77
2024/03/04 03:21:59;;;;;;;23.88;13.50;;;-0.80;85.80;;;;;;4955629;28;20027;-77
2024/03/04 03:24:25;;;;;;;22.55;11.88;;;-0.80;86.20;;;;;;4954714;28;20162;-77
2024/03/04 03:26:51;;;;;;;19.25;12.18;;;-0.80;86.30;;;;;;4954556;29;20039;-79
2024/03/04 03:29:17;;;;;;;24.55;12.88;;;-0.80;86.30;;;;;;4955803;29;20070;-75
2024/03/04 03:31:44;;;;;;;21.08;13.73;;;-0.90;86.50;;;;;;4955496;29;20038;-77
2024/03/04 03:34:10;;;;;;;20.65;12.18;;;-0.90;86.60;;;;;;4955700;28;20027;-77
2024/03/04 03:36:42;;;;;;;23.90;12.43;;;-0.90;86.60;;;;;;4955597;28;20027;-76
2024/03/04 03:39:09;;;;;;;21.65;12.05;;;-0.90;86.80;;;;;;4954290;29;20034;-77
2024/03/04 03:41:39;;;;;;;22.60;13.10;;;-0.80;86.80;;;;;;4955654;29;20494;-78
2024/03/04 03:44:05;;;;;;;28.98;14.40;;;-0.90;86.70;;;;;;4955707;28;20534;-78
2024/03/04 03:46:31;;;;;;;30.00;12.10;;;-0.90;86.70;;;;;;4955630;28;20043;-77
2024/03/04 03:48:57;;;;;;;25.15;12.45;;;-0.90;86.70;;;;;;4954627;29;20485;-77
2024/03/04 03:51:23;;;;;;;22.50;11.80;;;-0.90;86.70;;;;;;4957366;29;20152;-79
2024/03/04 03:53:51;;;;;;;20.48;12.48;;;-0.90;86.60;;;;;;4956651;28;20488;-78
2024/03/04 03:56:17;;;;;;;20.60;13.02;;;-0.90;86.60;;;;;;4956173;28;20552;-79
2024/03/04 03:58:44;;;;;;;22.17;11.23;;;-0.90;86.70;;;;;;4956701;28;20027;-77
2024/03/04 04:01:12;;;;;;;27.20;13.45;;;-0.90;86.60;;;;;;4954352;28;20031;-78
2024/03/04 04:03:38;;;;;;;26.20;13.93;;;-0.90;86.60;;;;;;4956761;28;20023;-77
2024/03/04 04:06:03;;;;;;;24.63;14.25;;;-0.90;86.50;;;;;;4955753;28;20066;-77
2024/03/04 04:08:29;;;;;;;28.50;14.27;;;-0.90;86.60;;;;;;4954586;28;20147;-77
2024/03/04 04:10:55;;;;;;;21.30;12.18;;;-0.90;86.70;;;;;;4940094;28;20099;-77
2024/03/04 04:13:22;;;;;;;25.23;14.40;;;-0.90;86.70;;;;;;4950500;29;20024;-77
2024/03/04 04:15:49;;;;;;;22.23;12.95;;;-0.90;86.70;;;;;;4948478;29;20027;-77
2024/03/04 04:18:15;;;;;;;;;;;-0.90;86.70;;;;;;4955300;28;20023;-78
2024/03/04 04:20:53;;;;;;;23.40;12.82;;;-0.90;86.60;;;;;;4955206;28;20407;-79
2024/03/04 04:23:19;;;;;;;24.77;12.35;;;-0.90;86.60;;;;;;4954788;28;20102;-78
2024/03/04 04:25:45;;;;;;;26.88;13.32;;;-0.90;86.70;;;;;;4953142;28;20121;-80
2024/03/04 04:28:11;;;;;;;22.98;13.05;;;-0.90;86.70;;;;;;4954633;28;20042;-79
2024/03/04 04:30:38;;;;;;;22.13;12.45;;;-0.80;86.80;;;;;;4954900;28;20070;-78
2024/03/04 04:33:04;;;;;;;25.88;13.13;;;-0.80;86.90;;;;;;4944233;28;20031;-79
2024/03/04 04:35:30;;;;;;;23.00;12.95;;;-0.80;86.70;;;;;;4954938;29;20027;-77
2024/03/04 04:37:56;;;;;;;23.17;13.45;;;-0.80;86.40;;;;;;4954753;29;20027;-79
2024/03/04 04:40:22;;;;;;;25.85;14.15;;;-0.70;86.30;;;;;;4950498;28;20528;-79
2024/03/04 04:42:47;;;;;;;22.70;13.60;;;-0.70;86.30;;;;;;4954865;28;20614;-79
2024/03/04 04:45:13;;;;;;;23.77;14.32;;;-0.60;86.20;;;;;;4954189;29;20019;-79
2024/03/04 04:47:39;;;;;;;25.05;13.40;;;-0.60;86.10;;;;;;4953197;28;20045;-78
2024/03/04 04:50:05;;;;;;;21.98;12.70;;;-0.60;86.00;;;;;;4954402;28;20111;-78
2024/03/04 04:52:31;;;;;;;23.48;12.73;;;-0.50;85.80;;;;;;4954441;28;20091;-78
2024/03/04 04:54:58;;;;;;;21.52;12.75;;;-0.50;85.50;;;;;;4969108;28;20123;-79
2024/03/04 04:57:25;;;;;;;29.38;15.45;;;-0.50;85.50;;;;;;4954518;28;20027;-78
2024/03/04 04:59:51;;;;;;;20.08;11.80;;;-0.40;85.90;;;;;;4954284;28;20432;-79
2024/03/04 05:02:17;;;;;;;18.83;13.02;;;-0.30;85.00;;;;;;4954148;29;20054;-77
2024/03/04 05:04:46;;;;;;;25.40;11.88;;;-0.30;84.90;;;;;;4951889;29;20102;-77
2024/03/04 05:07:12;;;;;;;19.38;12.18;;;-0.30;84.60;;;;;;4953955;28;20066;-78
2024/03/04 05:09:40;;;;;;;27.77;12.82;;;-0.20;84.30;;;;;;4953903;28;20066;-79
2024/03/04 05:12:06;;;;;;;22.50;11.93;;;-0.20;84.10;;;;;;4963944;28;20030;-80
2024/03/04 05:14:32;;;;;;;19.80;12.57;;;-0.10;84.20;;;;;;4957397;28;20027;-79
2024/03/04 05:16:58;;;;;;;21.95;12.15;;;-0.10;84.00;;;;;;4953982;28;20019;-77
2024/03/04 05:19:27;;;;;;;20.67;11.45;;;0.00;83.80;;;;;;4954321;29;20385;-79
2024/03/04 05:21:53;;;;;;;19.35;12.15;;;0.10;83.60;;;;;;4953549;28;20121;-79
2024/03/04 05:24:19;;;;;;;30.90;12.85;;;0.10;83.30;;;;;;4937406;29;20434;-80
2024/03/04 05:26:45;;;;;;;27.42;14.48;;;0.20;83.80;;;;;;4936102;28;20255;-78
2024/03/04 05:29:11;;;;;;;26.17;12.65;;;0.20;83.20;;;;;;4949038;28;20103;-80
2024/03/04 05:31:56;;;;;;;26.02;13.35;;;0.30;83.00;;;;;;4939691;28;20490;-79
2024/03/04 05:34:22;;;;;;;23.20;12.00;;;0.30;82.70;;;;;;4935255;29;20019;-80
2024/03/04 05:36:48;;;;;;;23.38;13.43;;;0.40;82.60;;;;;;4945306;29;20038;-80
2024/03/04 05:39:21;;;;;;;21.73;13.35;;;0.40;82.50;;;;;;4939188;29;20123;-80
2024/03/04 05:41:49;;;;;;;19.02;13.25;;;0.50;82.10;;;;;;4938724;29;20030;-78
2024/03/04 05:44:16;;;;;;;23.45;11.98;;;0.60;81.80;;;;;;4940714;29;20028;-78
2024/03/04 05:46:45;;;;;;;25.37;12.87;;;0.60;81.40;;;;;;4950255;28;20552;-78
2024/03/04 05:49:12;;;;;;;21.30;12.43;;;0.60;81.40;;;;;;4948841;28;20391;-79
2024/03/04 05:51:42;;;;;;;25.77;14.35;;;0.60;81.40;;;;;;4944875;28;20023;-80
2024/03/04 05:54:09;;;;;;;27.95;13.20;;;0.60;80.90;;;;;;4946633;29;20529;-78
2024/03/04 05:56:43;;;;;;;20.88;12.70;;;0.60;80.70;;;;;;4950209;28;20023;-80
2024/03/04 05:59:09;;;;;;;24.67;12.10;;;0.60;80.40;;;;;;4951707;29;20027;-79
2024/03/04 06:01:36;;;;;;;18.67;11.93;;;0.70;80.60;;;;;;4953431;28;20020;-78
2024/03/04 06:04:03;;;;;;;15.10;10.02;;;0.70;80.40;;;;;;4936253;28;20389;-79
2024/03/04 06:06:28;;;;;;;27.10;12.93;;;0.80;80.40;;;;;;4933943;28;20648;-79
2024/03/04 06:08:57;;;;;;;18.70;11.38;;;0.70;80.10;;;;;;4945907;29;20106;-79
2024/03/04 06:11:23;;;;;;;27.15;12.63;;;0.80;80.10;;;;;;4953640;28;20035;-78
2024/03/04 06:13:48;;;;;;;22.80;13.63;;;0.80;79.70;;;;;;4937731;28;20138;-80
2024/03/04 06:16:14;;;;;;;18.27;10.73;;;0.90;79.80;;;;;;4934290;29;20067;-80
2024/03/04 06:18:41;;;;;;;24.08;13.15;;;1.00;79.10;;;;;;4933996;29;20027;-80
2024/03/04 06:21:07;;;;;;;20.92;12.88;;;0.90;79.10;;;;;;4934189;29;20054;-80
2024/03/04 06:23:33;;;;;;;23.33;12.30;;;0.90;79.40;;;;;;4934379;29;20127;-79
2024/03/04 06:25:58;;;;;;;20.73;13.48;;;1.00;78.80;;;;;;4938073;28;20039;-80
2024/03/04 06:28:24;;;;;;;28.10;15.32;;;1.00;78.90;;;;;;4934478;29;20486;-77
2024/03/04 06:30:51;;;;;;;25.25;13.48;;;1.00;79.40;;;;;;4936165;29;20027;-80
2024/03/04 06:33:17;;;;;;;22.90;12.30;;;1.30;78.90;;;;;;4941323;29;20062;-80
2024/03/04 06:35:43;;;;;;;26.67;14.20;;;1.40;78.20;;;;;;4949901;29;20035;-79
2024/03/04 06:38:09;;;;;;;29.77;14.15;;;1.40;78.10;;;;;;4934476;29;20024;-79
2024/03/04 06:40:38;;;;;;;23.73;13.10;;;1.50;78.00;;;;;;4934252;29;20031;-79
2024/03/04 06:43:04;;;;;;;30.08;15.88;;;1.50;77.30;;;;;;4939827;29;20095;-80
2024/03/04 06:45:30;;;;;;;26.05;15.85;;;1.60;77.30;;;;;;4951188;29;20133;-81
2024/03/04 06:48:00;;;;;;;33.85;15.35;;;1.80;77.50;;;;;;4936686;28;20035;-80
2024/03/04 06:50:25;;;;;;;25.08;14.73;;;1.90;77.10;;;;;;4938478;29;20020;-80
2024/03/04 06:52:51;;;;;;;20.45;14.48;;;2.00;76.20;;;;;;4937197;29;20035;-78
2024/03/04 06:55:17;;;;;;;29.35;14.15;;;2.00;76.20;;;;;;4935832;28;20058;-80
2024/03/04 06:57:45;;;;;;;25.42;13.68;;;2.20;76.30;;;;;;4952144;29;20023;-79
2024/03/04 07:00:12;;;;;;;28.05;14.95;;;2.40;75.80;;;;;;4937172;29;20032;-80
2024/03/04 07:02:38;;;;;;;33.72;14.82;;;2.30;74.90;;;;;;4943640;29;20026;-81
2024/03/04 07:05:13;;;;;;;26.95;14.63;;;2.30;74.60;;;;;;4942285;29;20038;-80
2024/03/04 07:07:45;;;;;;;25.05;14.85;;;2.30;74.70;;;;;;4950656;28;20058;-78
2024/03/04 07:10:11;;;;;;;26.42;13.88;;;2.40;74.60;;;;;;4954909;28;20041;-79
2024/03/04 07:12:37;;;;;;;24.08;13.52;;;2.40;74.30;;;;;;4954764;29;20032;-78
2024/03/04 07:15:06;;;;;;;26.63;14.45;;;2.50;74.00;;;;;;4946727;28;20031;-82
2024/03/04 07:17:32;;;;;;;29.10;16.20;;;2.50;73.80;;;;;;4956273;28;20101;-77
2024/03/04 07:19:58;;;;;;;24.38;14.77;;;2.70;73.90;;;;;;4940544;29;20438;-79
2024/03/04 07:22:24;;;;;;;21.40;13.60;;;2.90;73.40;;;;;;4953750;29;20094;-79
2024/03/04 07:24:52;;;;;;;30.15;16.35;;;3.00;73.00;;;;;;4942556;28;20385;-79
2024/03/04 07:27:21;;;;;;;24.35;14.35;;;3.20;72.30;;;;;;4945817;29;20511;-78
2024/03/04 07:29:47;;;;;;;26.45;15.43;;;3.40;72.10;;;;;;4949010;29;20078;-78
2024/03/04 07:32:13;;;;;;;27.45;16.52;;;3.50;71.80;;;;;;4947648;29;20027;-79
2024/03/04 07:34:44;;;;;;;24.05;13.93;;;3.70;71.20;;;;;;4950381;29;20051;-79
2024/03/04 07:37:28;;;;;;;24.88;15.05;;;3.70;70.50;;;;;;4947020;29;20074;-78
2024/03/04 07:39:54;;;;;;;22.67;14.25;;;3.70;70.60;;;;;;4938801;29;20023;-79
2024/03/04 07:42:25;;;;;;;28.38;15.57;;;3.80;70.70;;;;;;4948235;29;20478;-83
2024/03/04 07:44:51;;;;;;;29.25;15.25;;;4.10;70.10;;;;;;4950833;28;20099;-83
2024/03/04 07:47:18;;;;;;;25.35;16.45;;;4.40;69.40;;;;;;4955944;29;20032;-81
2024/03/04 07:49:44;;;;;;;24.02;15.80;;;4.70;69.00;;;;;;4955243;29;20031;-83
2024/03/04 07:52:10;;;;;;;27.85;15.50;;;5.00;68.00;;;;;;4951585;28;20050;-83
2024/03/04 07:54:35;;;;;;;24.17;14.82;;;5.20;67.10;;;;;;4953082;29;20401;-82
2024/03/04 07:57:03;;;;;;;21.98;15.38;;;5.40;66.70;;;;;;4952359;28;20110;-82
2024/03/04 07:59:30;;;;;;;30.13;15.27;;;5.50;65.60;;;;;;4945394;28;20046;-84
2024/03/04 08:01:56;;;;;;;26.80;15.27;;;5.70;65.40;;;;;;4952883;28;20040;-86
2024/03/04 08:04:24;;;;;;;24.02;14.07;;;5.90;64.90;;;;;;4952200;29;20457;-82
2024/03/04 08:06:50;;;;;;;21.73;14.40;;;6.20;64.20;;;;;;4951269;28;20079;-81
2024/03/04 08:09:16;;;;;;;24.05;13.27;;;6.50;62.60;;;;;;4956109;28;20080;-85
2024/03/04 08:11:42;;;;;;;21.85;13.77;;;6.80;62.20;;;;;;4953756;29;20027;-84
2024/03/04 08:14:08;;;;;;;19.90;12.77;;;7.30;61.30;;;;;;4955942;28;20027;-85
2024/03/04 08:16:34;;;;;;;18.50;13.13;;;7.60;60.00;;;;;;4956576;28;20039;-82
2024/03/04 08:18:59;;;;;;;23.80;14.40;;;7.80;59.20;;;;;;4954830;28;20023;-83
2024/03/04 08:21:25;;;;;;;25.48;14.63;;;8.00;59.00;;;;;;4951204;28;20023;-84
2024/03/04 08:23:51;;;;;;;21.15;13.80;;;8.40;58.00;;;;;;4955216;28;20027;-82
2024/03/04 08:26:17;;;;;;;24.50;14.57;;;8.50;56.90;;;;;;4951178;28;20047;-83
2024/03/04 08:28:44;;;;;;;22.73;13.57;;;8.70;57.40;;;;;;4952651;28;20106;-80
2024/03/04 08:31:10;;;;;;;23.33;14.68;;;9.00;56.20;;;;;;4952871;28;20039;-83
2024/03/04 08:33:36;;;;;;;23.80;16.50;;;9.40;55.10;;;;;;4938873;28;20038;-83
2024/03/04 08:36:04;;;;;;;22.38;14.15;;;9.70;54.70;;;;;;4946553;29;20031;-82
2024/03/04 08:38:29;;;;;;;28.35;14.57;;;10.00;53.40;;;;;;4941335;28;20071;-86
2024/03/04 08:40:55;;;;;;;28.00;15.48;;;10.10;52.90;;;;;;4947989;29;20027;-85
2024/03/04 08:43:21;;;;;;;29.73;16.45;;;10.50;52.30;;;;;;4949327;29;20467;-83
2024/03/04 08:45:48;;;;;;;27.73;16.45;;;10.80;52.00;;;;;;4950674;29;20564;-83
2024/03/04 08:48:14;;;;;;;20.85;15.93;;;11.10;50.70;;;;;;4941011;28;20023;-83
2024/03/04 08:50:40;;;;;;;25.75;16.38;;;11.10;50.30;;;;;;4942214;28;20501;-82
2024/03/04 08:53:06;;;;;;;24.48;14.85;;;11.20;50.40;;;;;;4951010;29;20028;-82
2024/03/04 08:55:31;;;;;;;29.15;16.75;;;11.50;49.50;;;;;;4945915;28;20027;-83
2024/03/04 08:57:57;;;;;;;35.40;16.35;;;11.70;48.70;;;;;;4945754;28;20130;-83
2024/03/04 09:00:23;;;;;;;27.98;16.33;;;11.10;47.90;;;;;;4941043;29;20501;-86
2024/03/04 09:02:49;;;;;;;28.77;16.00;;;10.40;49.30;;;;;;4957079;28;20035;-86
2024/03/04 09:05:15;;;;;;;27.42;16.00;;;10.10;50.10;;;;;;4955667;28;20023;-85
2024/03/04 09:07:41;;;;;;;28.88;16.88;;;10.10;50.90;;;;;;4967852;28;20039;-85
2024/03/04 09:10:07;;;;;;;27.42;15.55;;;10.10;50.80;;;;;;4957553;28;20473;-86
2024/03/04 09:12:36;;;;;;;23.92;15.35;;;10.20;50.30;;;;;;4960411;28;20369;-85
2024/03/04 09:15:02;;;;;;;29.58;16.65;;;10.60;50.40;;;;;;4938138;29;20389;-85
2024/03/04 09:17:28;;;;;;;27.60;15.23;;;10.90;49.20;;;;;;4948751;29;20035;-85
2024/03/04 09:19:54;;;;;;;24.92;15.50;;;11.10;49.00;;;;;;4953717;28;20027;-82
2024/03/04 09:22:20;;;;;;;25.17;16.52;;;11.20;49.10;;;;;;4945761;29;20031;-86
2024/03/04 09:24:46;;;;;;;28.17;15.88;;;11.50;47.90;;;;;;4940822;28;20027;-85
2024/03/04 09:27:13;;;;;;;25.23;14.82;;;12.00;48.00;;;;;;4944596;28;20040;-85
2024/03/04 09:29:39;;;;;;;26.83;15.25;;;12.60;46.90;;;;;;4940198;29;20065;-84
2024/03/04 09:32:05;;;;;;;25.52;15.88;;;12.90;45.90;;;;;;4948466;29;20489;-82
2024/03/04 09:34:32;;;;;;;28.00;14.70;;;12.70;45.90;;;;;;4952913;29;20037;-85
2024/03/04 09:37:01;;;;;;;23.33;14.15;;;12.70;45.40;;;;;;4939736;28;20028;-86
2024/03/04 09:39:33;;;;;;;19.15;13.80;;;12.60;45.20;;;;;;4942792;28;20375;-83
2024/03/04 09:41:59;;;;;;;23.73;13.73;;;12.40;45.10;;;;;;4939831;28;20039;-84
2024/03/04 09:44:27;;;;;;;20.80;14.68;;;12.30;45.30;;;;;;4955904;28;20114;-83
2024/03/04 09:46:54;;;;;;;19.80;13.77;;;12.30;45.30;;;;;;4957811;28;20470;-84
2024/03/04 09:49:23;;;;;;;15.23;11.80;;;12.10;45.40;;;;;;4944242;29;20028;-87
2024/03/04 09:51:50;;;;;;;21.35;12.55;;;10.80;44.50;;;;;;4940733;29;20241;-84
2024/03/04 09:54:18;;;;;;;;;;;10.20;46.30;;;;;;4950457;28;20038;-85
2024/03/04 09:56:44;;;;;;;18.20;12.32;;;10.30;47.40;;;;;;4951931;29;20484;-86
2024/03/04 09:59:13;;;;;;;21.80;13.40;;;10.40;47.40;;;;;;4943859;29;20027;-88
2024/03/04 10:01:40;;;;;;;17.15;12.20;;;10.80;46.70;;;;;;4948139;28;20513;-82
2024/03/04 10:04:06;;;;;;;22.60;11.43;;;11.40;46.10;;;;;;4949722;28;20027;-83
2024/03/04 10:06:32;;;;;;;20.08;13.15;;;11.70;45.60;;;;;;4936163;29;20118;-83
2024/03/04 10:08:58;;;;;;;21.63;15.27;;;11.90;44.80;;;;;;4948635;29;20135;-84
2024/03/04 10:11:24;;;;;;;20.17;14.70;;;12.10;45.40;;;;;;4948310;29;20039;-82
2024/03/04 10:13:52;;;;;;;25.80;16.52;;;12.70;44.70;;;;;;4940724;29;20110;-81
2024/03/04 10:16:18;;;;;;;21.48;16.20;;;12.90;44.10;;;;;;4938832;28;20589;-81
2024/03/04 10:19:03;;;;;;;24.27;15.38;;;13.40;44.10;;;;;;4938932;29;20032;-83
2024/03/04 10:21:32;;;;;;;25.13;15.50;;;13.80;43.80;;;;;;4941421;28;20512;-81
2024/03/04 10:24:16;;;;;;;23.58;14.95;;;13.90;42.50;;;;;;4970393;28;20501;-82
2024/03/04 10:26:54;;;;;;;23.80;13.65;;;13.70;43.00;;;;;;4957153;29;20536;-82
2024/03/04 10:29:22;;;;;;;20.30;14.38;;;13.70;42.90;;;;;;4954749;29;20023;-84
2024/03/04 10:31:52;;;;;;;21.60;14.60;;;13.40;43.30;;;;;;4956781;28;20031;-83
2024/03/04 10:34:21;;;;;;;21.90;15.15;;;12.90;44.20;;;;;;4953565;29;20030;-83
2024/03/04 10:36:57;;;;;;;21.83;12.27;;;11.90;43.70;;;;;;4958013;29;20074;-87
2024/03/04 10:39:26;;;;;;;19.27;10.65;;;10.70;44.10;;;;;;4967646;29;20030;-84
2024/03/04 10:41:53;;;;;;;17.20;10.25;;;9.50;45.20;;;;;;4957343;29;20047;-84
2024/03/04 10:44:26;;;;;;;21.93;12.87;;;8.40;46.70;;;;;;4956089;28;20118;-83
2024/03/04 10:46:56;;;;;;;20.30;13.00;;;8.00;47.80;;;;;;4953721;29;20047;-82
2024/03/04 10:49:24;;;;;;;26.30;14.05;;;8.00;48.40;;;;;;4941915;29;20032;-82
2024/03/04 10:51:51;;;;;;;21.23;13.77;;;8.10;49.50;;;;;;4953258;29;20445;-83
2024/03/04 10:54:22;;;;;;;25.90;13.13;;;8.00;49.80;;;;;;4952544;29;20027;-83
2024/03/04 10:57:01;;;;;;;25.13;14.85;;;7.90;49.90;;;;;;4945619;28;20078;-84
2024/03/04 10:59:37;;;;;;;22.13;14.40;;;7.90;49.90;;;;;;4956834;28;20046;-83
2024/03/04 11:02:14;;;;;;;22.23;13.25;;;7.90;50.30;;;;;;4944519;28;20114;-83
2024/03/04 11:04:41;;;;;;;16.35;9.02;;;7.90;50.60;;;;;;4942257;28;20497;-86
2024/03/04 11:07:12;;;;;;;19.20;11.32;;;7.40;48.90;;;;;;4951700;28;20047;-85
2024/03/04 11:09:40;;;;;;;16.17;11.10;;;6.90;50.40;;;;;;4954317;29;20047;-83
2024/03/04 11:12:08;;;;;;;32.53;17.02;;;6.70;50.90;;;;;;4947505;28;20114;-82
2024/03/04 11:14:44;;;;;;;21.52;10.70;;;6.60;51.80;;;;;;4951895;28;20027;-86
2024/03/04 11:17:20;;;;;;;21.35;12.02;;;6.40;51.10;;;;;;4957193;28;20030;-83
2024/03/04 11:19:53;;;;;;;17.25;10.80;;;6.40;52.10;;;;;;4956729;28;20031;-83
2024/03/04 11:22:19;;;;;;;19.30;11.40;;;6.60;52.10;;;;;;4946500;29;20051;-85
2024/03/04 11:24:47;;;;;;;18.85;12.23;;;6.80;52.00;;;;;;4969695;28;20513;-82
2024/03/04 11:27:18;;;;;;;26.55;14.73;;;6.90;52.30;;;;;;4954168;29;20102;-84
2024/03/04 11:29:45;;;;;;;23.63;13.80;;;6.90;52.70;;;;;;4955477;28;20030;-84
2024/03/04 11:32:11;;;;;;;22.10;13.40;;;6.90;52.70;;;;;;4951076;29;20362;-83
2024/03/04 11:35:00;;;;;;;30.10;16.57;;;6.90;52.30;;;;;;4944958;28;20029;-85
2024/03/04 11:37:31;;;;;;;32.75;16.15;;;7.00;53.00;;;;;;4948423;29;20421;-83
2024/03/04 11:39:57;;;;;;;22.55;14.73;;;6.90;53.20;;;;;;4943778;28;20154;-84
2024/03/04 11:42:44;;;;;;;22.55;14.88;;;7.10;53.40;;;;;;4951638;29;20465;-84
2024/03/04 11:45:18;;;;;;;19.80;13.63;;;7.20;53.20;;;;;;4943684;29;20538;-83
2024/03/04 11:47:44;;;;;;;25.83;16.00;;;7.30;52.80;;;;;;4948720;28;20131;-81
2024/03/04 11:50:39;;;;;;;23.17;13.30;;;7.30;52.80;;;;;;4948463;28;20031;-83
2024/03/04 11:53:27;;;;;;;29.15;15.80;;;7.40;52.70;;;;;;4943385;28;20118;-85
2024/03/04 11:55:54;;;;;;;25.13;13.25;;;7.50;52.90;;;;;;4940443;29;20083;-83
2024/03/04 11:58:21;;;;;;;24.73;14.07;;;7.60;52.50;;;;;;4956050;28;20035;-86
2024/03/04 12:00:51;;;;;;;22.45;11.77;;;7.60;52.40;;;;;;4955520;28;20031;-85
2024/03/04 12:03:19;;;;;;;23.85;13.32;;;7.40;50.90;;;;;;4946956;28;20032;-84
2024/03/04 12:05:46;;;;;;;18.58;11.10;;;7.30;51.70;;;;;;4946513;28;20189;-82
2024/03/04 12:08:13;;;;;;;25.00;14.20;;;7.30;51.90;;;;;;4954348;28;20055;-84
2024/03/04 12:10:39;;;;;;;20.13;13.53;;;7.20;52.00;;;;;;4957516;28;20031;-85
2024/03/04 12:13:05;;;;;;;22.42;15.80;;;7.10;52.30;;;;;;4941421;28;20028;-88
2024/03/04 12:15:31;;;;;;;21.75;14.07;;;6.90;52.70;;;;;;4945367;29;20030;-83
2024/03/04 12:17:57;;;;;;;24.00;14.27;;;6.90;53.30;;;;;;4952951;28;20027;-86
2024/03/04 12:20:26;;;;;;;24.92;15.35;;;6.70;53.70;;;;;;4949982;29;20034;-84
2024/03/04 12:22:52;;;;;;;31.13;14.82;;;6.60;54.40;;;;;;4952219;28;20051;-83
2024/03/04 12:25:22;;;;;;;20.85;13.80;;;6.40;54.50;;;;;;4953309;29;20023;-84
2024/03/04 12:27:56;;;;;;;30.65;14.82;;;6.40;54.80;;;;;;4964727;28;20045;-84
2024/03/04 12:30:26;;;;;;;21.30;13.00;;;6.40;55.10;;;;;;4953844;29;20019;-84
2024/03/04 12:32:53;;;;;;;21.60;13.38;;;6.40;55.20;;;;;;4944291;28;20031;-84
2024/03/04 12:35:30;;;;;;;16.70;12.17;;;6.30;55.00;;;;;;4955773;28;20047;-82